Race Results for
Modesto Criterium
Modesto, CA
(Event Information)
View By:
Criterium on 05/16/2009

Note: Ranking points are NOT upgrade points. An explanation of ranking points can be found here.


Men - Pro/Cat 1/2

 Place Points NameCity, StateTime USAC #BibTeam
1339.01John Bergmann (1 - Cat1)   Albany, CA00:00.0 187522  596 Team Clif Bar
2343.43Chad Gerlach (1 - Pro)   West Sacramento, CA00:00.0 50138  597 Amore Vila Mcdonalds
3347.85Aaron Cox   Clovis, CA00:00.0 225219  590 HDR p/b Lombardi Sports
4352.27Brian Bosch   Fresno, CA00:00.0 40703  505 
5356.69John Wilk   Oakland, CA00:00.0 199951  521 Sierra Pacific Racing
6361.10Darren Basso   Belmont, CA00:00.0 130973  588 Arete' Racing
7365.52Filip Vanacht   Los Altos, CA00:00.0 245198  528 SugarCRM
8369.94Rand Miller   San Francisco, CA00:00.0 182990  595 Webcor/Alto Velo
9374.36Chris Stastny   Vacaville, CA00:00.0 249743  527 Davis Bike Club
10378.78Joel Robertson   San Leandro, CA00:00.0 220316  581 Sierra Pacific Racing
11383.20Paul Sumner   San Anselmo, CA00:00.0 47616  592 HDR p/b Lombardi Sports
12387.62Randy Bramblett   San Francisco, CA00:00.0 187194  532 Village Peddler
13392.04John Fairbanks   Sacramento, CA00:00.0 83306  537 Safeway/Bicycles Plus Racing
14396.46James Badia   Redwood City, CA00:00.0 200949  503 Webcor/Alto Velo
15400.88Alden Tanaka   San Mateo, CA00:00.0 568  594 TEAM CLIF BAR Cycling
16405.29Keith Hillier   Millbrae, CA00:00.0 276108  529 Davis Bike Club
17409.71Michael Cordova   Chester, CA00:00.0 207547  586 Chico Corsa Cycling Team
18414.13Gregory White   Lafayette, CA00:00.0 246669  518 Davis Bike Club
19418.55Doran Mori   Oakland, CA00:00.0 196267  512 Team Clif Bar Cycling
20422.97Benjamin Lyon (1 - Cat2)   San Francisco, CA00:00.0 227794  587 Arete' Racing
21UNKNOWN RIDER   00:00.0  ??? -------
22431.81Jeremiah Holdway   Sparks, NV00:00.0 55281  585 Reno Wheelmen
23436.23Herman Johnson   Modesto, CA00:00.0 53501  582 BSA RACING
24440.65Eric Walle   Berkeley, CA00:00.0 186029  517 TEAM CLIF BAR Cycling
25445.07Daniel Blomgren (2 - Cat2)   Berkeley, CA00:00.0 231896  504 Metromint Cycling on Marin Bik
26UNKNOWN RIDER   00:00.0  546 -------
27453.90Lee Shuemake   Sonora, CA00:00.0 197770  530 Delta Velo
28458.32David Pouncy   Piedmont, CA00:00.0 248071  513 Berkeley Bicycle Club (BBC)
29462.74Kalen Gruber   Los Altos Hills, CA00:00.0 49467  526 SugarCRM
30467.16Justin Lucke   Redwood City, CA00:00.0 21760  525 SugarCRM
31471.58Darin Divine   Mill Valley, CA00:00.0 97504  593 NorCal Elite Cycling
32476.00Joshua Lerner   San Francisco, CA00:00.0 206346  524 Fusion Sport USA
33480.42Tom Skiles   Salinas, CA00:00.0 169701  533 MBRT
34484.84Josh Rennie   Reno, NV00:00.0 251736  515 Team Clif Bar
35489.26Jimmy Miller   Hella Norcal Ca00:00.0 122096  591 HDR p/b Lombardi Sports
36493.67Sassan Golafshan   Palo Alto, CA00:00.0 169945  510 Form Fitness
37498.09Jeff Eisenberg   San Francisco, CA00:00.0 231993  509 Fusion Sport
38502.51John Hunt   Fairfax, CA00:00.0 17154  522 Unattached
39506.93Andres Gil   Stockton, CA00:00.0 171882  583 Delta Velo
40511.35Jonathan Eropkin (2 - Cat1)   Fresno, CA00:00.0 197844  536 Unattached
41515.77Carmi Schulman   Seattle, WA00:00.0 200292  516 Sportgenics/Squadra Ovest
42520.19Tim Granshaw   Redwood City, CA00:00.0 55803  584 Sierra Pacific Racing
43524.61Russell White   Lafayette, CA00:00.0 236024  519 Davis Bike Club
44529.03Danny Rondon   Tulare , CA00:00.0 30514  531 Sierra Pacific Racing
45533.45Eric Easterling   Fresno, CA00:00.0 79101  508 Sierra Pacific Racing
46537.86Collin Samaan   Fair Oaks, CA00:00.0 196233  599 
DNPMichael Camarena   Lindsay, CA00:00.0 47386  506 Yokohl Ranch/Sierra Bicycle We
DNPMack Chew   San Francisco, CA00:00.0 170147  507 Arete' Racing
DNPRobert MacNeill   San Carlos, CA00:00.0 199599  511 Webcor/Alto Velo
DNPJess Raphael   Napa, CA00:00.0 221460  514 SAFEWAY/Bicycles Plus Racing
DNPZachary Wick   Davis, CA00:00.0 200743  520 Davis Bike Club
DNPPatrick Briggs   Oakland, CA00:00.0 4838  523 California Giant Cycling
DNPBrett Park   San Rafael, CA00:00.0 134639  534 Arete' Racing
DNPDavid McCook   Tampa Fl00:00.0 66627  535 Unattached
DNPJoe Iannarelli   Vacaville, CA00:00.0 195783  589 TEAM CLIF BAR Cycling
DNPMatthew Beebe   Redwood City, CA00:00.0 205076  598 Webcor/Alto Velo

Men - Cat 1/2/3 - Master - 35-99

 Place Points NameCity, StateTime USAC #BibTeam
1332.69Michael Sayers   Fair Oaks, CA00:00.0 54591  890 Unattached
2337.58Eric Easterling   Fresno, CA00:00.0 79101  864 Sierra Pacific Racing
3342.46Alex Holtz   Sacramento, CA00:00.0 61440  870 EMC2-FELT
4347.34James Badia   Redwood City, CA00:00.0 200949  844 Webcor/Alto Velo
5352.22Andres Gil   Stockton, CA00:00.0 171882  801 Delta Velo
6357.11Shaun Bagley   Visalia, CA00:00.0 60730  854 Sierra Pacific Racing
7361.99Gregg Betonte   Truckee, CA00:00.0 255414  886 Safeway/Bicycles Plus Racing
8366.87Scott Fonseca   Fair Oaks, CA00:00.0 204715  867 Zenn Racing Team
9371.76Max Mack   Sacramento, CA00:00.0 45629  883 Health is Wealth powered by Wh
10376.64Scott Derdenger   Benicia, CA00:00.0 55123  895 HDR p/b Lombardi Sports
11381.52John Fairbanks   Sacramento, CA00:00.0 83306  866 Safeway/Bicycles Plus
12386.41John Hunt   Fairfax, CA00:00.0 17154  892 
13391.29Andrew Lancashire   Elk Grove, CA00:00.0 218734  874 Zenn Racing
14396.17Lee Shuemake   Sonora, CA00:00.0 197770  845 Delta Velo
15401.06Tim Granshaw   Redwood City, CA00:00.0 55803  804 Sierra Pacific Racing
16405.94Jeff Eisenberg   San Francisco, CA00:00.0 231993  865 Fusion Sport
17410.82Joe Molinari   Redwood City, CA00:00.0 24723  802 Form Fitness
18415.71Tim Loper   Fresno, CA00:00.0 212030  898 Vapor Racing
19420.59Chad DeMasi   Davis, CA00:00.0 158049  862 Rocknasium
20425.47Danny Rondon   Tulare , CA00:00.0 30514  838 Sierra Pacific Racing
21430.35Dave Kause   Sacramento, CA00:00.0 175157  843 Team Kinetic Cycles
22435.24Rob Cady   Elk Grove, CA00:00.0 49774  860 Zenn Racing Team
23440.12Jason Brown   Lodi, CA00:00.0 53115  858 VOS-Cycles Gladiator
24UNKNOWN RIDER   00:00.0  ??? -------
25449.89Jeremiah Holdway   Sparks, NV00:00.0 55281  805 Reno Wheelmen
26454.77Stephen Janke   Davis, CA00:00.0 188217  896 Rocknasium
27459.65Stephen Langone   Redwood City, CA00:00.0 152079  891 Sierra Pacific Racing
28464.54Ryan Hata   Sacramento, CA00:00.0 368  869 
29469.42Herman Johnson   Modesto, CA00:00.0 53501  849 BSA RACING
30474.30Lance Cameron   Pacific Grove, CA00:00.0 5900  859 Don Chapin Monterey Bay Racing
31479.19Sean Smith   Oakland, CA00:00.0 204018  880 California Giant Strawberry
32484.07Chris Courtney   Oakdale, CA00:00.0 47303  861 Unattached
33488.95Gregory Anderson   Vacaville, CA00:00.0 90802  839 Morgan Stanley/Team Spine/Spec
34493.83Jonathan Eropkin (1 - Cat1)   Fresno, CA00:00.0 197844  840 Unattached
35498.72David Del Rosso   Dublin, CA00:00.0 187432  863 HDR p/b Lombardi Sports
36503.60Brian Bosch   Fresno, CA00:00.0 40703  855 
37508.48Chris Patterson   Hayward, CA00:00.0 88722  803 Form Fitness
38513.37Mike Kelly   Rio Linda, CA00:00.0 138145  871 Zenn Cycling Team
39518.25Rich Mader   Sacramento, CA00:00.0 222996  841 Zenn Racing Team
40523.13Todd Kohli   San Francisco, CA00:00.0 198414  872 Arete' Racing
41528.02Jeff Poulsen   Arnold, CA00:00.0 28533  897 Safeway/Bicycles Plus Racing
42532.90Jeffrey Galland   Paradise, CA00:00.0 127804  842 Chico Corsa Cycling Team
43537.78Jonathan Laine   Truckee, CA00:00.0 256153  873 Safeway/Bicycles Plus
44542.67Charles Pockell-Wilson   Martinez Ca00:00.0 52696  888 Morgan Stanley/Team Spine/Spec
45547.55Robert MacNeill   San Carlos, CA00:00.0 199599  877 Webcor/Alto Velo
46552.43John Trefethen   Danville, CA00:00.0 212376  881 International Christian Cyclin
47557.32Joel Robertson   San Leandro, CA00:00.0 220316  848 Sierra Pacific Racing
48562.20Patrick Briggs   Oakland, CA00:00.0 4838  894 California Giant Cycling
49567.08Richard Bradley   Sacramento, CA00:00.0 223944  856 EMC2-Felt
50571.96Matthew Ream   Verdi, NV00:00.0 211441  846 VOS-Cycles Gladiator
51576.85Tom Skiles   Salinas, CA00:00.0 169701  847 MBRT
DNSChris Lyman   Napa, CA00:00.0 267171   Morgan Stanley/Team Spine/Spec
DNSPeter Williams   Sacramento, CA00:00.0 219604   EMC2/Felt
DNPMark Caldwell   Moraga, CA00:00.0 40039  806 Morgan Stanley Cycling Team
DNPRichard Brockie   San Jose, CA00:00.0 195395  857 Team Integrate/FFBC powered by
DNPSassan Golafshan   Palo Alto, CA00:00.0 169945  868 Form Fitness
DNPKent Lourenzo   Discovery Bay, CA00:00.0 72054  875 Wells Fargo Racing Team
DNPGregory McKinney   Fresno, CA00:00.0 196950  878 Central Valley Cycling
DNPBrett Park   San Rafael, CA00:00.0 134639  879 Arete' Racing
DNPShin Umeda   Sunnyvale, CA00:00.0 46023  884 Webcor/Alto Velo
DNPBrian Fessenden   Orinda, CA00:00.0 54692  885 Morgan Stanley/Team Spine/Spec
DNPVincent Gee   Sacramento, CA00:00.0 13001  889 EMC-Felt
DNPDaryl Parker   Sacramento, CA00:00.0 27253  893 Rocknasium
DNPRichard Juarez   Mill Valley, CA00:00.0 71186  899 VOS-Cycles Gladiator

Men - Cat 3

 Place Points NameCity, StateTime USAC #BibTeam
1435.78Josh LaGrange   Bend, OR00:00.0 201330  974 Form Fitness
2439.47Scott Herring   Sausalito, CA00:00.0 236346  980 Touchstone Climbing
3443.15Sean Smith   Oakland, CA00:00.0 204018  978 California Giant Strawberry
4446.84Lutz Braun   Clovis, CA00:00.0 258096  954 Central Valley Cycling
5450.53Brian Johnston   San Francisco, CA00:00.0 237599  972 Kaiser Permanente/Team Oakland
6454.21Luther Kopf   Oakland, CA00:00.0 205705  990 Dolce Vita Cycling
7457.90Todd Dodds   Redding, CA00:00.0 204936  964 Owens Healthcare
8461.59Michael Egan   West Sacrametno, CA00:00.0 124893  965 Sacramento Golden Wheelmen
9465.27Scott Butler   Columbia, MO00:00.0 106701  956 Pacific State Bank Cycling Tea
10468.96Michael Ricks   Stockton, CA00:00.0 250319  989 Chico Corsa Cycling Team
11472.65R Todd Marshall   Sacramento, CA00:00.0 43936  977 Armstong & Assoc./ FCI Lending
12476.33David Acri   San Francisco00:00.0 233803  987 Sportgenic/Squadra Ovest
13480.02Asim Malik   San Jose, CA00:00.0 165925  976 Whole Athlete
14483.71Jeff Horner   Walnut Creek, CA00:00.0 219308  970 Wells Fargo Racing Team
15487.39Richard Bradley   Sacramento, CA00:00.0 223944  952 EMC2-Felt
16491.08Joseph Devera   Santa Cruz, CA00:00.0 50739  963 BSA RACING
17494.77Jason Allen   Carmichael, CA00:00.0 202003  986 Language 411
18498.45Louis Toba   Palo Alto, CA00:00.0 56384  979 Webcor Alto Velo
19502.14Benjamin Cota   San Jose, CA00:00.0 7881  961 BSA Racing
20505.83Joshua Brand   Sacramento , CA00:00.0 209043  953 Kinetic Cycles
21509.51Nathanael Christensen   Clements, CA00:00.0 239919  959 Delta Velo
22513.20Neil Bartley   San Jose, CA00:00.0 209268  951 Berkeley Bicycle Club (BBC)
23516.89Bill Nicely   San Ramon, CA00:00.0 215434  994 VOS-Cycles Gladiator
24520.57Eric Hoffmann   San Francisco, CA00:00.0 219415  968 Touchstone Climbing
25524.26Kenny Strickland   San Ramon, CA00:00.0 270965  988 InfoVista Cycling Team
26527.95James Whitney   Lincoln, CA00:00.0 51073  992 Fusion Sport
27531.63Joseph Christensen   Clements, CA00:00.0 240832  960 Rocket Sports Racing
28535.32Kent Lourenzo   Discovery Bay, CA00:00.0 72054  975 Wells Fargo Racing Team
29539.01Nole Studley   Oakland, CA00:00.0 251301  993 Team Roaring Mouse
30542.69Lance Cameron   Pacific Grove, CA00:00.0 5900  958 Don Chapin Monterey Bay Racing
DNSChad DeMasi   Davis, CA00:00.0 158049   Rocknasium
DNSSteven Grusis   Madera, CA00:00.0 60756   Rubber Soul/CSC Racing Team
DNSAllen JASON   00:00.0   River City Racing / Language 4
DNPRichard Brockie   San Jose, CA00:00.0 195395  955 Team Integrate/FFBC powered by
DNPGabriel Byrne   Santa Cruz, CA00:00.0 178761  957 Sportgenic/Squadra Ovest
DNPTony Homes   Danville, CA00:00.0 210572  969 Wells Fargo Racing Team
DNPTodd Kohli   San Francisco, CA00:00.0 198414  973 Arete' Racing
DNPMark Robertson   Oakland, CA00:00.0 237380  981 Taleo Racing
DNPMarcus Smith   Pleasanton, CA00:00.0 209193  982 Team Specialized Racing Junior
DNPStephen Langone   Redwood City, CA00:00.0 152079  983 Sierra Pacific Racing
DNPJeffrey Galland   Paradise, CA00:00.0 127804  984 Chico Corsa Cycling Team
DNPLeon Iannarelli   Vacaville, CA00:00.0 49838  985 Precision Bicycles/Team Precis
DNPKalani Hines   San Francisco, CA00:00.0 219316  991 Metromint
DNPErnest Gallardo   Greenfield, CA00:00.0 90586  966 Vos Cycle-Gladiator

Men - Cat 4/5

 Place Points NameCity, StateTime USAC #BibTeam
1487.13Devin Avery   Rancho Cordova, CA00:00.0 252381  474 BEER
2489.19David Gingrich   Los Angeles, CA00:00.0 153637  424 Prolong Energy
3491.24Ryan Gadow   Dublin, CA00:00.0 271417  422 Tieni Duro
4493.30Alcino Azevedo   Lakeside, CA00:00.0 276257  403 ACQUA AL 2/San Diego Bicycle C
5495.36David Carlson   Sacramento, CA00:00.0 286490  411 Davis Bike Club
6497.42Chris Dawson   Sacramento, CA00:00.0 224241  416 River City Racing
7499.47Todd Ebe (1 - Cat5)   Sanfrancisco, CA00:00.0 287638  420 NA
8501.53Michael Boehme   Windsor, CA00:00.0 252576  462 Colavita/Sutterhome-Norcal
9503.59Mike Brunetti   Escalon, CA00:00.0 273437  408 NA
10505.65Jeromy Cottell   Redwood City, CA00:00.0 273912  415 Peninsula Velo / Pomodoro
11507.70Mark Hockridge   Granite Bay, CA00:00.0 269690  427 Davis Bike Club
12509.76Sunny Sandhu   Fresno, CA00:00.0 271787  484 Central Valley Cycling
13511.82Paul Ngo   San Jose, CA00:00.0 275571  436 Team Roaring Mouse
14513.88Greg Tripoli   Hanford, CA00:00.0 281420  450 Rubber Soul/CSC Racing Team
15515.93Andrew Alonis   Palo Alto, CA00:00.0 292239  401 
16517.99Victor Mirzayan   Fresno, CA00:00.0 262853  472 
17520.05Kyle Rose (1 - Cat4)   San Francisco, CA00:00.0 276124  461 Team Type 1
18522.11David Brunetti   Modesto, CA00:00.0 5236  409 NA
19UNKNOWN RIDER   00:00.0  ??? -------
20526.22Jason Oxford   Fresno, CA00:00.0 277338  440 Vapor Racing - vaporracing.com
21528.28Romeo Uriarte   Orinda, CA00:00.0 262503  467 Berkeley Bicycle Club (BBC)
22530.34John Gates   Carpinteria, CA00:00.0 295313  423 Team Chicken Ranch
23532.39David Doll   Merced, CA00:00.0 281768  417 Stanislaus/Merlock Velo
24534.45Serge Plasschaert   San Jose, CA00:00.0 195521  443 International Christian Cyclin
25536.51Ricardo Contreras   Panorama City, CA00:00.0 272584  414 UC Santa Cruz
27538.57Rory Osbrink   Pleasanton, CA00:00.0 218676  438 Hawk Relay Cycling Team
28540.62Paul Taylor   Brentwood, CA00:00.0 207281  449 Metromint Cycling
29542.68Kenneth Schneider   San Ramon, CA00:00.0 293383  471 Unattached
30544.74Stephen Blakemore   Turlock, CA00:00.0 79937  473 InfoVista Cycling Team
31546.79Brent Majors   Clovis, CA00:00.0 286527  432 Rubber Soul/CSC racing Team
32548.85Michael Chenoweth   Pensacola, FL00:00.0 271708  412 Yokohl Ranch / Sierra Bicycle
33550.91Ryan Johnson   San Francisco, CA00:00.0 288483  429 NA
34552.97Mitch Karno   Santa Barbara, CA00:00.0 205902  430 Team Chicken Ranch
35555.02David Glennon   Fresno, CA00:00.0 287141  425 Rubber Soul/CSC Racing Team
36557.08Ken Doyle   Santa Barbara, CA00:00.0 9958  418 Team Chicken Ranch
37559.14Scott Hellam   Fresno, CA00:00.0 287510  426 Rubber Soul/CSC
38561.20Chris Summers   San Francisco, CA00:00.0 286027  448 
39563.25Rick Reynolds   Truckee, CA00:00.0 287475  445 Cyclepaths/wild cherries racin
40565.31Mitch Boehs   Livingston, CA00:00.0 237309  463 Stanislaus/Merlock Velo
41567.37Matt Abdalah   Los Altos, CA00:00.0 224627  456 SugarCRM/SJBC
42Patrick CONNER   00:00.0  413 
43571.48Rob Robinson   Castro Valley, CA00:00.0 271386  446 InfoVista Cycling Team
44573.54Matthew Triska   San Francisco, CA00:00.0 257229  451 Sportgenic/Squadra Ovest
45575.60German Villa   San Lorenzo, CA00:00.0 224232  453 Berkeley Bicycle Club (BBC)
46577.66Francisco Azevedo   Santa Rosa, CA00:00.0 219166  404 Sportgenic/Squadra Ovest
47579.71Joe Galloway   Exeter, CA00:00.0 242644  470 Yokohl Ranch/Sierra Bicycle We
48581.77Larry Upthegrove   Antioch, CA00:00.0 195417  466 International Christian Cyclin
49583.83Joshua Ballesteros   Brentwood, CA00:00.0 262160  458 Third Pillar
50585.89Alvaro Mosquera   Sacramento, CA00:00.0 236809  435 Berkeley Bicycle Club (BBC)
51587.94Garrett Otto   San Luis Obispo, CA00:00.0 270003  439 SLO Nexus - Gym One
52590.00Gus Arbis   Fremont, CA00:00.0 214902  402 Peninsula Velo/Pomodoro
DNSDarren Finger   Antioch, CA00:00.0 226625   Unattached
DNSSaeed Abedi   Mountain View, CA00:00.0 172270   Webcor/ Alto Velo
DNSAllen Brumm   Foster City, CA00:00.0 195431   Webcor/Alto Velo
DNSJoshua Bullock   Sacramento, CA00:00.0 153414   Chico Corsa
DNSTodd Ebe (Cat5)   Sanfrancisco, CA00:00.0 287638   NA
DNSMatt MCKINZIE   00:00.0   
DNSMichael Norris   San Francisco, CA00:00.0 156881   Team Roaring Mouse
DNSGuy Van Natta   Clovis, CA00:00.0 218823   Central Valley Cycling
DNSRyan Wenker (Cat4)   Folsom, CA00:00.0 178427   Team Mad Cat
DNSJoshua Ballesteros   Brentwood, CA00:00.0 262160   third pillar
DNSJonathan Teeter   Guerneville, CA00:00.0 291414   DBC
DNSChristopher Melhuish (Cat5)   Modesto, CA00:00.0 294534   
DNPTimothy Bisson   San Jose, CA00:00.0 221552  405 Fremont Freewheelers
DNPMatthew Esselstrom   Modesto, CA00:00.0 277510  421 Stanislaus County Bicycle Club
DNPIan Hoffman   Fresno, CA00:00.0 271128  428 CVC
DNPAdam Lucero   Santa Cruz, CA00:00.0 257679  431 UC Santa Cruz Cycling
DNPZak Paillon   Sacramento, CA00:00.0 272054  441 Health is Wealth p/b Whole Foo
DNPJeffrey Palileo   American Canyon, CA00:00.0 224717  442 Sportgenic/Squadra Ovest
DNPIvan Poddubnyy   San Jose, CA00:00.0 266310  444 Webcor/AltoVelo
DNPZachary Scioli (Cat4)   San Francisco, CA00:00.0 295338  447 Organic Athlete
DNPStephen Wassather   Santa Cruz, CA00:00.0 269058  454 Rio Strada Racing
DNPEric Casares   00:00.0  468 
DNPDarrel James   Modesto, CA00:00.0 225665  469 Unattached
DNPlee guinchard   Livermore, CA00:00.0 290485  459 
DNFTreighton Mauldin (Cat4)   Elk Grove, CAAuburn 267395  433 Victory Velo

Men - Cat 4/5 - Master - 35-99

 Place Points NameCity, StateTime USAC #BibTeam
1491.93Richard Tabuso   Roseville, CA00:00.0 274439  166 Rio Strada Racing
2494.99Guy Van Natta   Clovis, CA00:00.0 218823  169 Central Valley Cycling
3498.06Rob Thompson   Portland, OR00:00.0 272005  168 Dolce Vita Cycling
4501.12Mike Brunetti   Escalon, CA00:00.0 273437  134 NA
5504.19Mark Hockridge   Granite Bay, CA00:00.0 269690  145 Davis Bike Club
6507.25Derek Novaes   West Sacramento, CA00:00.0 274484  154 Rio Strada Racing
7510.32Joey McCrummen   Brentwood, CA00:00.0 23350  149 
8513.38Chris Summers   San Francisco, CA00:00.0 286027  165 
9516.45Paul Taylor   Brentwood, CA00:00.0 207281  167 Metromint Cycling
10519.51Matthew Batz   Campbell, CA00:00.0 103222  131 Webcor/Alto Velo
11522.58Christopher Martin (1 - Cat4)   Tracy, CA00:00.0 22643  148 Bike Newport Oregon
12525.64Rodney Spradlin   El Dorado Hills, CA00:00.0 122266  163 FCI Armstrong
13528.71Robert Napieralski   Springville, CA00:00.0 271499  153 Yokohl Ranch/SSC Racing Team
14531.77Michael Chenoweth   Pensacola, FL00:00.0 271708  136 Yokohl Ranch / Sierra Bicycle
15534.84Jason Oxford   Fresno, CA00:00.0 277338  157 Vapor Racing - vaporracing.com
16537.90Shawn Overholtzer   Modesto, CA00:00.0 229420  156 InfoVista Cycling Team
17540.97David Brunetti   Modesto, CA00:00.0 5236  135 NA
18544.03German Villa   San Lorenzo, CA00:00.0 224232  170 Berkeley Bicycle Club (BBC)
19547.09Scott Hellam   Fresno, CA00:00.0 287510  143 Rubber Soul/CSC
20550.16David Metzinger   Livermore, CA00:00.0 230083  150 Now Direct
21mike NISSEN   00:00.0  174 
22556.29Jeff Watson   Elk Grove, CA00:00.0 293136  176 Team Bicycles Plus / Sierra Ne
23559.35Wyatt Garcia   Atwater, CA00:00.0 287655  140 
24562.42Mitch Boehs   Livingston, CA00:00.0 237309  199 Stanislaus/Merlock Velo
25565.48Romeo Uriarte   Orinda, CA00:00.0 262503  177 Berkeley Bicycle Club (BBC)
26Patrick CONNER   00:00.0  137 
27571.61Sean Odom   Carmichael, CA00:00.0 223061  155 Rio Strada Racing
28574.68Allen Brumm   Foster City, CA00:00.0 195431  192 Webcor/Alto Velo
29577.74Philippe Azoulay   San Jose, CA00:00.0 207662  173 SJBC/SugarCRM
30580.81Steve Sprinkle   Austin, TX00:00.0 159240  164 
31583.87Allen Jackson   Sonora, CA00:00.0 260263  146 Stanislaus/Merlock Velo
32586.94Scott Harvey   Kingsburg, CA00:00.0 286981  141 Vapor Racing
33590.00Rob Robinson   Castro Valley, CA00:00.0 271386  160 InfoVista Cycling Team
DNSGus Arbis   Fremont, CA00:00.0 214902   Peninsula Velo/Pomodoro
DNSPaul Henderson   Livermore, CA00:00.0 254491   Now Direct
DNSChris King   San Francisco, CA00:00.0 245892   Dolce Vita Cycling
DNSGregory Moyer   Pleasanton, CA00:00.0 278755   IC3
DNSKrag Rasmussen   Castro Valley, CA00:00.0 197826   Eden Bicycles
DNSBrian Agnell   Sacramento, CA00:00.0 180563   Rio Strada Racing
DNSErnie Perreira (Cat4)   Sebastopol, CA00:00.0 27775   team nor-cal bike sport club
DNSRick Reynolds   Truckee, CA00:00.0 287475   Cyclepaths/wild cherries racin
DNSKevin Smith   Santa Rosa, CA00:00.0 289015   Team NorCal Bike Sport
DNSRoger Von Rotz   Modesto, CA00:00.0 240458   VSRT/Livermore Cyclery
DNPReed Azevedo   Manteca, CA00:00.0 281782  130 
DNPMatthew Berrien   Folsom, CA00:00.0 287318  132 Rio Strada Racing
DNPMichael Boehme   Windsor, CA00:00.0 252576  133 Colavita/Sutterhome-Norcal
DNPJames Cotta   Lodi, CA00:00.0 282175  138 N/A
DNPMatthew Esselstrom   Modesto, CA00:00.0 277510  139 Stanislaus County Bicycle Club
DNPThomas Heise (Cat4)   Livermore, CA00:00.0 271843  142 Now Direct
DNPMark Nakamura   Pacifica, CA00:00.0 179927  152 Kaiser Permanente/Team Oakland
DNPRich Rozzi   Hollywood Ca00:00.0 230031  161 Colavita/Sutterhome-Norcal
DNPMartin Wolff   Carmel, CA00:00.0 203646  162 VOS-Cycles Gladiator
DNPJuan Ortiz   Castro Valley, CA00:00.0 26838  178 Unattached
DNPBob Loux   Modesto, CA00:00.0 287104  179 Unattached

Men - Master - MR - 45-99

 Place Points NameCity, StateTime USAC #BibTeam
1387.76Richard Juarez   Mill Valley, CA00:00.0 71186  350 VOS-Cycles Gladiator
2396.21Gregg Betonte   Truckee, CA00:00.0 255414  341 Safeway / Bicycles Plus
3404.66Mike Gadow   Dublin, CA00:00.0 12619  345 TIENI DURO
4413.10Andrew Nevitt   Saratoga, CA00:00.0 47463  355 SJBC/SugarCRM
5Vincent Gee   00:00.0  369 EMC_Felt
6430.00R Todd Marshall   Sacramento, CA00:00.0 43936  353 Armstong & Assoc./ FCI Lending
7438.45Mark Robertson   Oakland, CA00:00.0 237380  365 Taleo Racing
8446.89Gregory Pike   Salinas, CA00:00.0 158350  357 VOS Racing - Cycles Gladiator
9455.34Chris Courtney   Oakdale, CA00:00.0 47303  344 Unattached
10463.79Martin Wolff   Carmel, CA00:00.0 203646  363 VOS-Cycles Gladiator
11472.24Robert Napieralski   Springville, CA00:00.0 271499  354 Yokohl Ranch/SSC Racing Team
12480.69Rick Reynolds   Truckee, CA00:00.0 287475  362 Cyclepaths/wild cherries racin
13489.13Shin Umeda   Sunnyvale, CA00:00.0 46023  368 Webcor/Alto Velo
14497.58Roger Von Rotz   Modesto, CA00:00.0 240458  360 VSRT/Livermore Cyclery
15506.03Jonathan Laine   Truckee, CA00:00.0 256153  351 Safeway/Bicycles Plus
16514.48Darryl Smith   Pleasanton, CA00:00.0 33092  367 International Christian Cyclin
17522.92roger hogan   Fresno, CA00:00.0 285192  348 Rubbersoul/CSC racing team
18531.37Steve Sprinkle   Austin, TX00:00.0 159240  359 
19539.82Michael Camarena   Lindsay, CA00:00.0 47386  342 Yokohl Ranch/Sierra Bicycle We
20548.27Jeff Poulsen   Arnold, CA00:00.0 28533  364 Safeway/Bicycles Plus Racing
21556.72Jess Raphael   Napa, CA00:00.0 221460  358 SAFEWAY/Bicycles Plus Racing
22565.16Brent Majors   Clovis, CA00:00.0 286527  352 Rubber Soul/CSC racing Team
23573.61Rocco Hollaway   Modesto, CA00:00.0 195261  349 VSRT
24582.06John Bellantoni   San Jose, CA00:00.0 46441  366 Webcor/Alto Velo
DNSSteven Grusis   Madera, CA00:00.0 60756   Rubber Soul/CSC Racing Team
DNPJames Cotta   Lodi, CA00:00.0 282175  343 N/A
DNPDouglas Gonda   Truckee, CA00:00.0 13594  346 Reno Wheelmen
DNPBill Nicely   San Ramon, CA00:00.0 215434  356 VOS-Cycles Gladiator
DNPtodd ISAMAN   00:00.0  361 
DNPAndre Del Curto   00:00.0  370 

Men - Master - MR - 55-99

 Place Points NameCity, StateTime USAC #BibTeam
1418.04Mark Caldwell   Moraga, CA00:00.0 40039  391 Morgan Stanley Cycling Team
2438.49Mark Rodamaker   Los Altos, CA00:00.0 30269  390 Unattached
3458.94Brian Fessenden   Orinda, CA00:00.0 54692  388 MORGAN STANLEY/TEAM SPINE/SPEC
4479.39Mac Carey   Pleasant Hill, CA00:00.0 249301  381 Taleo Racing
5499.84David Stockwell   San Jose, CA00:00.0 53052  387 SJBC/SugarCRM
6520.29Bruce Coffey   Newman, CA00:00.0 271696  382 SJBC/SugarCRM
7540.73Manuel Borges   Vacavaille, CA00:00.0 254360  380 VOS-Cycles Gladiator
8561.18Ernest Gallardo Sr   Soledad Ca.00:00.0 12682  386 VOS-Cycles Gladiator
DNSWilliam Fallis   San Mateo, CA00:00.0 45315   Peninsula Velo/Pomodoro
DNPBob Ebe   Lafayette, CA00:00.0 229180  383 Taleo Racing
DNPDana Farmer   Gold River, CA00:00.0 150815  385 VOS-Cycles Gladiator
DNPLarry Upthegrove   Antioch, CA00:00.0 195417  389 International Christian Cyclin

Report missing or incorrect license numbers

Volkswagen
ShimanoSierra NevadaSpyCUOREUSACDFBonk Breaker
UCI USA Cycling is the official governing body for all disciplines of competitive cycling in the United States. The 501c3, membership-based organization aims both to achieve sustained success in international cycling competition and to grow competitive cycling in America while delivering an exceptional customer experience.
View Children's Online Privacy Protection Policy
US Olympic Committee